sensor_id;sensor_type;location;lat;lon;timestamp;temperature;humidity
8527;DHT22;4301;48.362;8.478;2023-06-04T00:00:51;12.30;1.00
8527;DHT22;4301;48.362;8.478;2023-06-04T00:03:18;12.30;1.00
8527;DHT22;4301;48.362;8.478;2023-06-04T00:05:45;12.20;1.00
8527;DHT22;4301;48.362;8.478;2023-06-04T00:08:14;12.20;1.00
8527;DHT22;4301;48.362;8.478;2023-06-04T00:10:41;12.20;1.00
8527;DHT22;4301;48.362;8.478;2023-06-04T00:13:07;12.20;1.00
8527;DHT22;4301;48.362;8.478;2023-06-04T00:15:34;12.20;1.00
8527;DHT22;4301;48.362;8.478;2023-06-04T00:18:01;12.20;1.00
8527;DHT22;4301;48.362;8.478;2023-06-04T00:20:28;12.20;1.00
8527;DHT22;4301;48.362;8.478;2023-06-04T00:22:55;12.10;1.00
8527;DHT22;4301;48.362;8.478;2023-06-04T00:25:23;12.10;1.00
8527;DHT22;4301;48.362;8.478;2023-06-04T00:27:51;12.10;1.00
8527;DHT22;4301;48.362;8.478;2023-06-04T00:30:18;12.00;1.00
8527;DHT22;4301;48.362;8.478;2023-06-04T00:32:45;11.90;1.00
8527;DHT22;4301;48.362;8.478;2023-06-04T00:35:13;11.80;1.00
8527;DHT22;4301;48.362;8.478;2023-06-04T00:37:40;11.80;1.00
8527;DHT22;4301;48.362;8.478;2023-06-04T00:40:07;11.70;1.00
8527;DHT22;4301;48.362;8.478;2023-06-04T00:42:36;11.70;1.00
8527;DHT22;4301;48.362;8.478;2023-06-04T00:45:04;11.60;1.00
8527;DHT22;4301;48.362;8.478;2023-06-04T00:47:33;11.60;1.00
8527;DHT22;4301;48.362;8.478;2023-06-04T00:50:00;11.60;1.00
8527;DHT22;4301;48.362;8.478;2023-06-04T00:52:27;11.60;1.00
8527;DHT22;4301;48.362;8.478;2023-06-04T00:54:54;11.50;1.00
8527;DHT22;4301;48.362;8.478;2023-06-04T00:57:22;11.50;1.00
8527;DHT22;4301;48.362;8.478;2023-06-04T00:59:50;11.40;1.00
8527;DHT22;4301;48.362;8.478;2023-06-04T01:02:21;11.50;1.00
8527;DHT22;4301;48.362;8.478;2023-06-04T01:04:53;11.50;1.00
8527;DHT22;4301;48.362;8.478;2023-06-04T01:07:22;11.40;1.00
8527;DHT22;4301;48.362;8.478;2023-06-04T01:09:49;11.40;1.00
8527;DHT22;4301;48.362;8.478;2023-06-04T01:12:17;11.30;1.00
8527;DHT22;4301;48.362;8.478;2023-06-04T01:14:44;11.30;1.00
8527;DHT22;4301;48.362;8.478;2023-06-04T01:17:19;11.20;1.00
8527;DHT22;4301;48.362;8.478;2023-06-04T01:20:12;11.10;1.00
8527;DHT22;4301;48.362;8.478;2023-06-04T01:22:43;11.00;1.00
8527;DHT22;4301;48.362;8.478;2023-06-04T01:25:20;11.00;1.00
8527;DHT22;4301;48.362;8.478;2023-06-04T01:27:50;10.90;4.10
8527;DHT22;4301;48.362;8.478;2023-06-04T01:30:21;10.90;4.10
8527;DHT22;4301;48.362;8.478;2023-06-04T01:32:51;10.90;6.10
8527;DHT22;4301;48.362;8.478;2023-06-04T01:35:18;10.90;9.00
8527;DHT22;4301;48.362;8.478;2023-06-04T01:37:45;10.80;9.00
8527;DHT22;4301;48.362;8.478;2023-06-04T01:40:13;10.80;11.60
8527;DHT22;4301;48.362;8.478;2023-06-04T01:42:40;10.80;8.20
8527;DHT22;4301;48.362;8.478;2023-06-04T01:45:08;10.70;17.10
8527;DHT22;4301;48.362;8.478;2023-06-04T01:47:35;10.80;14.20
8527;DHT22;4301;48.362;8.478;2023-06-04T01:50:06;10.80;5.20
8527;DHT22;4301;48.362;8.478;2023-06-04T01:52:34;10.70;10.70
8527;DHT22;4301;48.362;8.478;2023-06-04T01:55:02;10.70;14.10
8527;DHT22;4301;48.362;8.478;2023-06-04T01:57:30;10.60;18.10
8527;DHT22;4301;48.362;8.478;2023-06-04T01:59:57;10.50;24.40
8527;DHT22;4301;48.362;8.478;2023-06-04T02:02:24;10.50;26.10
8527;DHT22;4301;48.362;8.478;2023-06-04T02:04:51;10.50;35.60
8527;DHT22;4301;48.362;8.478;2023-06-04T02:07:20;10.50;35.20
8527;DHT22;4301;48.362;8.478;2023-06-04T02:09:47;10.40;35.20
8527;DHT22;4301;48.362;8.478;2023-06-04T02:12:14;10.40;48.00
8527;DHT22;4301;48.362;8.478;2023-06-04T02:14:41;10.30;41.70
8527;DHT22;4301;48.362;8.478;2023-06-04T02:17:11;10.30;53.30
8527;DHT22;4301;48.362;8.478;2023-06-04T02:19:38;10.30;50.60
8527;DHT22;4301;48.362;8.478;2023-06-04T02:22:10;10.30;47.60
8527;DHT22;4301;48.362;8.478;2023-06-04T02:24:38;10.20;51.90
8527;DHT22;4301;48.362;8.478;2023-06-04T02:27:08;10.10;60.10
8527;DHT22;4301;48.362;8.478;2023-06-04T02:29:35;10.00;67.30
8527;DHT22;4301;48.362;8.478;2023-06-04T02:32:02;10.10;63.50
8527;DHT22;4301;48.362;8.478;2023-06-04T02:34:30;10.10;63.90
8527;DHT22;4301;48.362;8.478;2023-06-04T02:36:56;10.00;68.50
8527;DHT22;4301;48.362;8.478;2023-06-04T02:39:24;10.10;65.90
8527;DHT22;4301;48.362;8.478;2023-06-04T02:41:52;10.00;59.20
8527;DHT22;4301;48.362;8.478;2023-06-04T02:44:19;10.00;65.50
8527;DHT22;4301;48.362;8.478;2023-06-04T02:46:46;10.00;66.30
8527;DHT22;4301;48.362;8.478;2023-06-04T02:49:13;9.90;70.70
8527;DHT22;4301;48.362;8.478;2023-06-04T02:51:40;9.80;71.80
8527;DHT22;4301;48.362;8.478;2023-06-04T02:54:07;9.80;77.30
8527;DHT22;4301;48.362;8.478;2023-06-04T02:56:35;9.80;72.40
8527;DHT22;4301;48.362;8.478;2023-06-04T02:59:04;9.80;74.60
8527;DHT22;4301;48.362;8.478;2023-06-04T03:01:31;9.80;77.80
8527;DHT22;4301;48.362;8.478;2023-06-04T03:03:58;9.90;73.20
8527;DHT22;4301;48.362;8.478;2023-06-04T03:06:26;9.80;63.40
8527;DHT22;4301;48.362;8.478;2023-06-04T03:08:54;9.80;71.30
8527;DHT22;4301;48.362;8.478;2023-06-04T03:11:21;9.80;65.80
8527;DHT22;4301;48.362;8.478;2023-06-04T03:13:48;9.80;72.80
8527;DHT22;4301;48.362;8.478;2023-06-04T03:16:18;9.80;78.20
8527;DHT22;4301;48.362;8.478;2023-06-04T03:18:46;9.80;68.60
8527;DHT22;4301;48.362;8.478;2023-06-04T03:21:13;9.80;83.90
8527;DHT22;4301;48.362;8.478;2023-06-04T03:23:40;9.80;89.40
8527;DHT22;4301;48.362;8.478;2023-06-04T03:26:07;9.90;91.10
8527;DHT22;4301;48.362;8.478;2023-06-04T03:28:34;9.90;93.70
8527;DHT22;4301;48.362;8.478;2023-06-04T03:31:01;9.90;93.10
8527;DHT22;4301;48.362;8.478;2023-06-04T03:33:30;9.90;91.10
8527;DHT22;4301;48.362;8.478;2023-06-04T03:35:57;9.90;88.00
8527;DHT22;4301;48.362;8.478;2023-06-04T03:38:24;10.00;81.80
8527;DHT22;4301;48.362;8.478;2023-06-04T03:40:51;9.90;81.00
8527;DHT22;4301;48.362;8.478;2023-06-04T03:43:19;9.90;83.00
8527;DHT22;4301;48.362;8.478;2023-06-04T03:45:46;9.80;87.80
8527;DHT22;4301;48.362;8.478;2023-06-04T03:48:13;9.90;78.40
8527;DHT22;4301;48.362;8.478;2023-06-04T03:50:41;9.90;76.70
8527;DHT22;4301;48.362;8.478;2023-06-04T03:53:08;9.90;76.00
8527;DHT22;4301;48.362;8.478;2023-06-04T03:55:35;9.90;78.20
8527;DHT22;4301;48.362;8.478;2023-06-04T03:58:02;9.80;90.20
8527;DHT22;4301;48.362;8.478;2023-06-04T04:00:29;9.80;91.90
8527;DHT22;4301;48.362;8.478;2023-06-04T04:02:56;9.90;94.10
8527;DHT22;4301;48.362;8.478;2023-06-04T04:05:23;9.80;94.20
8527;DHT22;4301;48.362;8.478;2023-06-04T04:07:51;9.80;96.10
8527;DHT22;4301;48.362;8.478;2023-06-04T04:10:18;9.80;97.90
8527;DHT22;4301;48.362;8.478;2023-06-04T04:12:45;9.90;98.20
8527;DHT22;4301;48.362;8.478;2023-06-04T04:15:13;9.90;97.60
8527;DHT22;4301;48.362;8.478;2023-06-04T04:17:39;9.80;99.90
8527;DHT22;4301;48.362;8.478;2023-06-04T04:20:07;9.90;95.70
8527;DHT22;4301;48.362;8.478;2023-06-04T04:22:33;9.90;95.20
8527;DHT22;4301;48.362;8.478;2023-06-04T04:25:02;10.00;90.90
8527;DHT22;4301;48.362;8.478;2023-06-04T04:27:29;10.10;93.30
8527;DHT22;4301;48.362;8.478;2023-06-04T04:29:56;10.10;92.10
8527;DHT22;4301;48.362;8.478;2023-06-04T04:32:25;10.20;87.30
8527;DHT22;4301;48.362;8.478;2023-06-04T04:34:53;10.30;90.20
8527;DHT22;4301;48.362;8.478;2023-06-04T04:37:20;10.30;79.40
8527;DHT22;4301;48.362;8.478;2023-06-04T04:39:48;10.40;79.00
8527;DHT22;4301;48.362;8.478;2023-06-04T04:42:18;10.40;90.60
8527;DHT22;4301;48.362;8.478;2023-06-04T04:44:45;10.40;75.80
8527;DHT22;4301;48.362;8.478;2023-06-04T04:47:14;10.50;75.60
8527;DHT22;4301;48.362;8.478;2023-06-04T04:49:41;10.50;73.80
8527;DHT22;4301;48.362;8.478;2023-06-04T04:52:08;10.50;64.60
8527;DHT22;4301;48.362;8.478;2023-06-04T04:54:35;10.60;63.50
8527;DHT22;4301;48.362;8.478;2023-06-04T04:57:03;10.60;70.70
8527;DHT22;4301;48.362;8.478;2023-06-04T04:59:31;10.70;52.10
8527;DHT22;4301;48.362;8.478;2023-06-04T05:01:58;10.70;44.50
8527;DHT22;4301;48.362;8.478;2023-06-04T05:04:25;10.70;38.50
8527;DHT22;4301;48.362;8.478;2023-06-04T05:06:52;10.70;30.40
8527;DHT22;4301;48.362;8.478;2023-06-04T05:09:19;10.80;34.00
8527;DHT22;4301;48.362;8.478;2023-06-04T05:11:46;10.90;24.00
8527;DHT22;4301;48.362;8.478;2023-06-04T05:14:13;11.00;22.10
8527;DHT22;4301;48.362;8.478;2023-06-04T05:16:41;11.00;20.70
8527;DHT22;4301;48.362;8.478;2023-06-04T05:19:10;11.00;31.40
8527;DHT22;4301;48.362;8.478;2023-06-04T05:21:37;11.10;39.40
8527;DHT22;4301;48.362;8.478;2023-06-04T05:24:04;11.20;40.80
8527;DHT22;4301;48.362;8.478;2023-06-04T05:26:31;11.30;38.10
8527;DHT22;4301;48.362;8.478;2023-06-04T05:28:58;11.40;49.00
8527;DHT22;4301;48.362;8.478;2023-06-04T05:31:27;11.50;49.20
8527;DHT22;4301;48.362;8.478;2023-06-04T05:33:56;11.60;53.80
8527;DHT22;4301;48.362;8.478;2023-06-04T05:36:23;11.70;37.30
8527;DHT22;4301;48.362;8.478;2023-06-04T05:38:50;11.90;43.30
8527;DHT22;4301;48.362;8.478;2023-06-04T05:41:22;12.00;12.90
8527;DHT22;4301;48.362;8.478;2023-06-04T05:43:49;12.10;1.00
8527;DHT22;4301;48.362;8.478;2023-06-04T05:46:17;12.20;1.00
8527;DHT22;4301;48.362;8.478;2023-06-04T05:48:44;12.30;1.00
8527;DHT22;4301;48.362;8.478;2023-06-04T05:51:13;12.40;1.00
8527;DHT22;4301;48.362;8.478;2023-06-04T05:53:40;12.50;1.00
8527;DHT22;4301;48.362;8.478;2023-06-04T05:56:07;12.70;1.00
8527;DHT22;4301;48.362;8.478;2023-06-04T05:58:34;12.90;1.00
8527;DHT22;4301;48.362;8.478;2023-06-04T06:01:01;13.10;1.00
8527;DHT22;4301;48.362;8.478;2023-06-04T06:03:29;13.30;1.00
8527;DHT22;4301;48.362;8.478;2023-06-04T06:05:56;13.40;1.00
8527;DHT22;4301;48.362;8.478;2023-06-04T06:08:26;13.50;1.00
8527;DHT22;4301;48.362;8.478;2023-06-04T06:10:53;13.60;99.90
8527;DHT22;4301;48.362;8.478;2023-06-04T06:13:20;13.80;1.00
8527;DHT22;4301;48.362;8.478;2023-06-04T06:15:47;14.00;1.00
8527;DHT22;4301;48.362;8.478;2023-06-04T06:18:14;14.10;1.00
8527;DHT22;4301;48.362;8.478;2023-06-04T06:20:42;14.20;1.00
8527;DHT22;4301;48.362;8.478;2023-06-04T06:23:09;14.30;17.70
8527;DHT22;4301;48.362;8.478;2023-06-04T06:25:37;14.50;99.90
8527;DHT22;4301;48.362;8.478;2023-06-04T06:28:06;14.60;99.90
8527;DHT22;4301;48.362;8.478;2023-06-04T06:30:33;14.70;37.60
8527;DHT22;4301;48.362;8.478;2023-06-04T06:33:00;14.90;99.90
8527;DHT22;4301;48.362;8.478;2023-06-04T06:35:27;15.00;99.90
8527;DHT22;4301;48.362;8.478;2023-06-04T06:37:54;15.20;1.00
8527;DHT22;4301;48.362;8.478;2023-06-04T06:40:21;15.30;1.00
8527;DHT22;4301;48.362;8.478;2023-06-04T06:42:50;15.50;99.90
8527;DHT22;4301;48.362;8.478;2023-06-04T06:45:17;15.70;99.90
8527;DHT22;4301;48.362;8.478;2023-06-04T06:47:45;15.90;1.00
8527;DHT22;4301;48.362;8.478;2023-06-04T06:50:12;16.10;99.90
8527;DHT22;4301;48.362;8.478;2023-06-04T06:52:39;16.30;99.90
8527;DHT22;4301;48.362;8.478;2023-06-04T06:55:06;16.40;99.90
8527;DHT22;4301;48.362;8.478;2023-06-04T06:57:33;16.60;99.90
8527;DHT22;4301;48.362;8.478;2023-06-04T07:00:01;16.70;99.90
8527;DHT22;4301;48.362;8.478;2023-06-04T07:02:31;16.90;99.90
8527;DHT22;4301;48.362;8.478;2023-06-04T07:04:58;17.10;99.80
8527;DHT22;4301;48.362;8.478;2023-06-04T07:07:25;17.30;72.20
8527;DHT22;4301;48.362;8.478;2023-06-04T07:09:52;17.50;1.00
8527;DHT22;4301;48.362;8.478;2023-06-04T07:12:19;17.60;1.00
8527;DHT22;4301;48.362;8.478;2023-06-04T07:14:46;17.80;1.00
8527;DHT22;4301;48.362;8.478;2023-06-04T07:17:14;18.10;1.00
8527;DHT22;4301;48.362;8.478;2023-06-04T07:19:41;18.20;1.00
8527;DHT22;4301;48.362;8.478;2023-06-04T07:22:08;18.20;1.00
8527;DHT22;4301;48.362;8.478;2023-06-04T07:24:36;18.40;1.00
8527;DHT22;4301;48.362;8.478;2023-06-04T07:27:10;18.60;1.00
8527;DHT22;4301;48.362;8.478;2023-06-04T07:29:37;18.60;1.00
8527;DHT22;4301;48.362;8.478;2023-06-04T07:32:04;18.80;1.00
8527;DHT22;4301;48.362;8.478;2023-06-04T07:34:32;18.90;99.90
8527;DHT22;4301;48.362;8.478;2023-06-04T07:36:59;18.90;99.90
8527;DHT22;4301;48.362;8.478;2023-06-04T07:39:27;19.10;99.90
8527;DHT22;4301;48.362;8.478;2023-06-04T07:41:54;19.30;99.90
8527;DHT22;4301;48.362;8.478;2023-06-04T07:44:21;19.30;99.90
8527;DHT22;4301;48.362;8.478;2023-06-04T07:46:48;19.30;99.90
8527;DHT22;4301;48.362;8.478;2023-06-04T07:49:15;19.30;99.90
8527;DHT22;4301;48.362;8.478;2023-06-04T07:51:44;19.30;99.90
8527;DHT22;4301;48.362;8.478;2023-06-04T07:54:11;18.80;99.90
8527;DHT22;4301;48.362;8.478;2023-06-04T07:56:39;19.00;99.90
8527;DHT22;4301;48.362;8.478;2023-06-04T07:59:06;19.40;99.90
8527;DHT22;4301;48.362;8.478;2023-06-04T08:01:33;19.70;99.90
8527;DHT22;4301;48.362;8.478;2023-06-04T08:04:00;19.80;99.90
8527;DHT22;4301;48.362;8.478;2023-06-04T08:06:27;19.80;99.90
8527;DHT22;4301;48.362;8.478;2023-06-04T08:08:56;20.00;99.90
8527;DHT22;4301;48.362;8.478;2023-06-04T08:11:23;20.20;99.90
8527;DHT22;4301;48.362;8.478;2023-06-04T08:13:50;20.40;99.90
8527;DHT22;4301;48.362;8.478;2023-06-04T08:16:17;20.70;99.90
8527;DHT22;4301;48.362;8.478;2023-06-04T08:18:45;20.90;99.90
8527;DHT22;4301;48.362;8.478;2023-06-04T08:21:12;21.20;99.90
8527;DHT22;4301;48.362;8.478;2023-06-04T08:23:42;21.20;99.90
8527;DHT22;4301;48.362;8.478;2023-06-04T08:26:11;21.10;99.90
8527;DHT22;4301;48.362;8.478;2023-06-04T08:28:39;21.50;99.90
8527;DHT22;4301;48.362;8.478;2023-06-04T08:31:06;21.40;99.90
8527;DHT22;4301;48.362;8.478;2023-06-04T08:33:33;20.90;99.90
8527;DHT22;4301;48.362;8.478;2023-06-04T08:36:00;21.30;99.90
8527;DHT22;4301;48.362;8.478;2023-06-04T08:38:26;21.30;99.90
8527;DHT22;4301;48.362;8.478;2023-06-04T08:40:56;21.90;99.90
8527;DHT22;4301;48.362;8.478;2023-06-04T08:43:27;22.10;99.90
8527;DHT22;4301;48.362;8.478;2023-06-04T08:45:59;22.30;99.90
8527;DHT22;4301;48.362;8.478;2023-06-04T08:48:28;22.10;99.90
8527;DHT22;4301;48.362;8.478;2023-06-04T08:50:57;22.30;99.90
8527;DHT22;4301;48.362;8.478;2023-06-04T08:53:26;22.70;99.90
8527;DHT22;4301;48.362;8.478;2023-06-04T08:55:53;22.90;99.90
8527;DHT22;4301;48.362;8.478;2023-06-04T08:58:21;22.60;99.90
8527;DHT22;4301;48.362;8.478;2023-06-04T09:00:49;22.90;99.90
8527;DHT22;4301;48.362;8.478;2023-06-04T09:03:17;23.10;99.90
8527;DHT22;4301;48.362;8.478;2023-06-04T09:05:47;23.10;99.90
8527;DHT22;4301;48.362;8.478;2023-06-04T09:08:17;23.30;99.90
8527;DHT22;4301;48.362;8.478;2023-06-04T09:10:44;23.90;99.90
8527;DHT22;4301;48.362;8.478;2023-06-04T09:13:15;24.10;99.90
8527;DHT22;4301;48.362;8.478;2023-06-04T09:15:43;23.90;99.90
8527;DHT22;4301;48.362;8.478;2023-06-04T09:18:12;23.70;97.50
8527;DHT22;4301;48.362;8.478;2023-06-04T09:20:39;23.90;91.50
8527;DHT22;4301;48.362;8.478;2023-06-04T09:23:12;24.00;83.80
8527;DHT22;4301;48.362;8.478;2023-06-04T09:25:43;24.00;66.50
8527;DHT22;4301;48.362;8.478;2023-06-04T09:28:10;23.40;72.30
8527;DHT22;4301;48.362;8.478;2023-06-04T09:30:37;23.40;65.60
8527;DHT22;4301;48.362;8.478;2023-06-04T09:33:07;24.00;99.90
8527;DHT22;4301;48.362;8.478;2023-06-04T09:35:36;24.50;75.40
8527;DHT22;4301;48.362;8.478;2023-06-04T09:38:05;24.70;49.10
8527;DHT22;4301;48.362;8.478;2023-06-04T09:40:35;24.60;38.60
8527;DHT22;4301;48.362;8.478;2023-06-04T09:43:03;24.60;32.10
8527;DHT22;4301;48.362;8.478;2023-06-04T09:45:31;24.80;32.60
8527;DHT22;4301;48.362;8.478;2023-06-04T09:47:58;25.30;37.70
8527;DHT22;4301;48.362;8.478;2023-06-04T09:50:26;25.70;12.10
8527;DHT22;4301;48.362;8.478;2023-06-04T09:52:55;25.80;1.00
8527;DHT22;4301;48.362;8.478;2023-06-04T09:55:22;25.80;1.00
8527;DHT22;4301;48.362;8.478;2023-06-04T09:57:51;25.80;1.00
8527;DHT22;4301;48.362;8.478;2023-06-04T10:00:19;25.80;1.00
8527;DHT22;4301;48.362;8.478;2023-06-04T10:02:48;25.80;1.00
8527;DHT22;4301;48.362;8.478;2023-06-04T10:05:16;26.40;1.00
8527;DHT22;4301;48.362;8.478;2023-06-04T10:07:47;26.60;1.00
8527;DHT22;4301;48.362;8.478;2023-06-04T10:10:21;27.10;1.00
8527;DHT22;4301;48.362;8.478;2023-06-04T10:12:54;27.30;1.00
8527;DHT22;4301;48.362;8.478;2023-06-04T10:15:21;27.40;1.00
8527;DHT22;4301;48.362;8.478;2023-06-04T10:17:49;27.90;1.00
8527;DHT22;4301;48.362;8.478;2023-06-04T10:20:17;27.00;1.00
8527;DHT22;4301;48.362;8.478;2023-06-04T10:22:47;27.10;1.00
8527;DHT22;4301;48.362;8.478;2023-06-04T10:25:16;27.60;1.00
8527;DHT22;4301;48.362;8.478;2023-06-04T10:27:46;27.40;1.00
8527;DHT22;4301;48.362;8.478;2023-06-04T10:30:13;27.50;1.00
8527;DHT22;4301;48.362;8.478;2023-06-04T10:32:40;27.80;1.00
8527;DHT22;4301;48.362;8.478;2023-06-04T10:35:08;27.80;1.00
8527;DHT22;4301;48.362;8.478;2023-06-04T10:37:35;27.00;1.00
8527;DHT22;4301;48.362;8.478;2023-06-04T10:40:02;26.90;1.00
8527;DHT22;4301;48.362;8.478;2023-06-04T10:42:38;26.80;1.00
8527;DHT22;4301;48.362;8.478;2023-06-04T10:45:08;27.00;1.00
8527;DHT22;4301;48.362;8.478;2023-06-04T10:47:35;26.70;1.00
8527;DHT22;4301;48.362;8.478;2023-06-04T10:50:09;26.90;1.00
8527;DHT22;4301;48.362;8.478;2023-06-04T10:52:37;27.10;1.00
8527;DHT22;4301;48.362;8.478;2023-06-04T10:55:06;27.80;1.00
8527;DHT22;4301;48.362;8.478;2023-06-04T10:57:34;28.20;1.00
8527;DHT22;4301;48.362;8.478;2023-06-04T11:00:01;28.70;1.00
8527;DHT22;4301;48.362;8.478;2023-06-04T11:02:32;28.90;1.00
8527;DHT22;4301;48.362;8.478;2023-06-04T11:05:01;28.60;1.00
8527;DHT22;4301;48.362;8.478;2023-06-04T11:07:41;29.00;1.00
8527;DHT22;4301;48.362;8.478;2023-06-04T11:10:10;28.00;1.00
8527;DHT22;4301;48.362;8.478;2023-06-04T11:12:44;28.60;1.00
8527;DHT22;4301;48.362;8.478;2023-06-04T11:15:11;29.20;1.00
8527;DHT22;4301;48.362;8.478;2023-06-04T11:17:49;29.00;1.00
8527;DHT22;4301;48.362;8.478;2023-06-04T11:20:17;29.10;1.00
8527;DHT22;4301;48.362;8.478;2023-06-04T11:22:51;28.90;1.00
8527;DHT22;4301;48.362;8.478;2023-06-04T11:25:18;29.00;1.00
8527;DHT22;4301;48.362;8.478;2023-06-04T11:27:45;28.50;1.00
8527;DHT22;4301;48.362;8.478;2023-06-04T11:30:13;27.90;1.00
8527;DHT22;4301;48.362;8.478;2023-06-04T11:32:40;28.20;1.00
8527;DHT22;4301;48.362;8.478;2023-06-04T11:35:09;27.90;1.00
8527;DHT22;4301;48.362;8.478;2023-06-04T11:37:37;28.80;1.00
8527;DHT22;4301;48.362;8.478;2023-06-04T11:40:15;29.20;1.00
8527;DHT22;4301;48.362;8.478;2023-06-04T11:42:44;29.80;1.00
8527;DHT22;4301;48.362;8.478;2023-06-04T11:45:12;29.90;1.00
8527;DHT22;4301;48.362;8.478;2023-06-04T11:47:40;28.60;1.00
8527;DHT22;4301;48.362;8.478;2023-06-04T11:50:10;28.20;1.00
8527;DHT22;4301;48.362;8.478;2023-06-04T11:52:38;28.40;1.00
8527;DHT22;4301;48.362;8.478;2023-06-04T11:55:08;28.60;1.00
8527;DHT22;4301;48.362;8.478;2023-06-04T11:57:36;28.50;1.00
8527;DHT22;4301;48.362;8.478;2023-06-04T12:00:05;28.70;1.00
8527;DHT22;4301;48.362;8.478;2023-06-04T12:02:35;28.80;1.00
8527;DHT22;4301;48.362;8.478;2023-06-04T12:05:12;28.00;1.00
8527;DHT22;4301;48.362;8.478;2023-06-04T12:07:39;28.20;1.00
8527;DHT22;4301;48.362;8.478;2023-06-04T12:10:06;29.00;1.00
8527;DHT22;4301;48.362;8.478;2023-06-04T12:12:34;29.40;1.00
8527;DHT22;4301;48.362;8.478;2023-06-04T12:15:01;30.20;1.00
8527;DHT22;4301;48.362;8.478;2023-06-04T12:17:32;30.20;1.00
8527;DHT22;4301;48.362;8.478;2023-06-04T12:19:59;28.90;1.00
8527;DHT22;4301;48.362;8.478;2023-06-04T12:22:28;28.20;1.00
8527;DHT22;4301;48.362;8.478;2023-06-04T12:24:57;28.10;1.00
8527;DHT22;4301;48.362;8.478;2023-06-04T12:27:28;28.00;1.00
8527;DHT22;4301;48.362;8.478;2023-06-04T12:29:57;27.80;1.00
8527;DHT22;4301;48.362;8.478;2023-06-04T12:32:24;27.40;1.00
8527;DHT22;4301;48.362;8.478;2023-06-04T12:34:51;27.80;1.00
8527;DHT22;4301;48.362;8.478;2023-06-04T12:37:20;28.20;1.00
8527;DHT22;4301;48.362;8.478;2023-06-04T12:39:48;28.00;1.00
8527;DHT22;4301;48.362;8.478;2023-06-04T12:42:16;27.60;1.00
8527;DHT22;4301;48.362;8.478;2023-06-04T12:44:44;27.40;1.00
8527;DHT22;4301;48.362;8.478;2023-06-04T12:47:11;27.30;1.00
8527;DHT22;4301;48.362;8.478;2023-06-04T12:49:38;27.20;1.00
8527;DHT22;4301;48.362;8.478;2023-06-04T12:52:05;27.10;1.00
8527;DHT22;4301;48.362;8.478;2023-06-04T12:54:32;27.10;1.00
8527;DHT22;4301;48.362;8.478;2023-06-04T12:57:01;26.50;1.00
8527;DHT22;4301;48.362;8.478;2023-06-04T12:59:28;26.20;1.00
8527;DHT22;4301;48.362;8.478;2023-06-04T13:01:55;26.30;1.00
8527;DHT22;4301;48.362;8.478;2023-06-04T13:04:23;26.30;1.00
8527;DHT22;4301;48.362;8.478;2023-06-04T13:06:50;26.40;1.00
8527;DHT22;4301;48.362;8.478;2023-06-04T13:09:18;26.60;1.00
8527;DHT22;4301;48.362;8.478;2023-06-04T13:11:46;26.50;1.00
8527;DHT22;4301;48.362;8.478;2023-06-04T13:14:15;26.10;1.00
8527;DHT22;4301;48.362;8.478;2023-06-04T13:16:42;26.10;1.00
8527;DHT22;4301;48.362;8.478;2023-06-04T13:19:11;26.30;1.00
8527;DHT22;4301;48.362;8.478;2023-06-04T13:21:38;26.60;1.00
8527;DHT22;4301;48.362;8.478;2023-06-04T13:24:06;26.80;1.00
8527;DHT22;4301;48.362;8.478;2023-06-04T13:26:33;26.40;1.00
8527;DHT22;4301;48.362;8.478;2023-06-04T13:29:00;26.20;1.00
8527;DHT22;4301;48.362;8.478;2023-06-04T13:31:29;26.30;1.00
8527;DHT22;4301;48.362;8.478;2023-06-04T13:33:56;26.80;1.00
8527;DHT22;4301;48.362;8.478;2023-06-04T13:36:23;27.20;1.00
8527;DHT22;4301;48.362;8.478;2023-06-04T13:38:50;27.40;1.00
8527;DHT22;4301;48.362;8.478;2023-06-04T13:41:18;27.20;1.00
8527;DHT22;4301;48.362;8.478;2023-06-04T13:43:46;26.50;1.00
8527;DHT22;4301;48.362;8.478;2023-06-04T13:46:13;26.90;1.00
8527;DHT22;4301;48.362;8.478;2023-06-04T13:48:42;27.60;1.00
8527;DHT22;4301;48.362;8.478;2023-06-04T13:51:09;27.50;1.00
8527;DHT22;4301;48.362;8.478;2023-06-04T13:53:37;27.10;1.00
8527;DHT22;4301;48.362;8.478;2023-06-04T13:56:04;26.80;1.00
8527;DHT22;4301;48.362;8.478;2023-06-04T13:58:31;26.20;1.00
8527;DHT22;4301;48.362;8.478;2023-06-04T14:00:58;25.70;1.00
8527;DHT22;4301;48.362;8.478;2023-06-04T14:03:25;25.50;1.00
8527;DHT22;4301;48.362;8.478;2023-06-04T14:05:53;25.30;1.00
8527;DHT22;4301;48.362;8.478;2023-06-04T14:08:20;24.70;1.00
8527;DHT22;4301;48.362;8.478;2023-06-04T14:10:47;24.70;1.00
8527;DHT22;4301;48.362;8.478;2023-06-04T14:13:17;24.70;1.00
8527;DHT22;4301;48.362;8.478;2023-06-04T14:15:44;24.50;1.00
8527;DHT22;4301;48.362;8.478;2023-06-04T14:18:11;24.50;1.00
8527;DHT22;4301;48.362;8.478;2023-06-04T14:20:38;24.40;1.00
8527;DHT22;4301;48.362;8.478;2023-06-04T14:23:06;24.20;1.00
8527;DHT22;4301;48.362;8.478;2023-06-04T14:25:33;24.10;1.00
8527;DHT22;4301;48.362;8.478;2023-06-04T14:28:02;24.10;1.00
8527;DHT22;4301;48.362;8.478;2023-06-04T14:30:29;24.10;1.00
8527;DHT22;4301;48.362;8.478;2023-06-04T14:32:56;24.20;1.00
8527;DHT22;4301;48.362;8.478;2023-06-04T14:35:23;24.10;1.00
8527;DHT22;4301;48.362;8.478;2023-06-04T14:37:50;24.20;1.00
8527;DHT22;4301;48.362;8.478;2023-06-04T14:40:18;24.20;1.00
8527;DHT22;4301;48.362;8.478;2023-06-04T14:42:45;24.20;1.00
8527;DHT22;4301;48.362;8.478;2023-06-04T14:45:12;24.10;1.00
8527;DHT22;4301;48.362;8.478;2023-06-04T14:47:39;24.20;1.00
8527;DHT22;4301;48.362;8.478;2023-06-04T14:50:06;24.40;1.00
8527;DHT22;4301;48.362;8.478;2023-06-04T14:52:33;24.30;1.00
8527;DHT22;4301;48.362;8.478;2023-06-04T14:55:00;24.40;1.00
8527;DHT22;4301;48.362;8.478;2023-06-04T14:57:28;24.20;1.00
8527;DHT22;4301;48.362;8.478;2023-06-04T14:59:55;24.10;1.00
8527;DHT22;4301;48.362;8.478;2023-06-04T15:02:22;24.20;1.00
8527;DHT22;4301;48.362;8.478;2023-06-04T15:04:49;24.40;1.00
8527;DHT22;4301;48.362;8.478;2023-06-04T15:07:16;24.30;1.00
8527;DHT22;4301;48.362;8.478;2023-06-04T15:09:44;24.20;1.00
8527;DHT22;4301;48.362;8.478;2023-06-04T15:12:13;24.00;1.00
8527;DHT22;4301;48.362;8.478;2023-06-04T15:14:43;24.00;1.00
8527;DHT22;4301;48.362;8.478;2023-06-04T15:17:10;23.90;1.00
8527;DHT22;4301;48.362;8.478;2023-06-04T15:19:37;24.00;1.00
8527;DHT22;4301;48.362;8.478;2023-06-04T15:22:04;24.00;1.00
8527;DHT22;4301;48.362;8.478;2023-06-04T15:24:31;23.80;1.00
8527;DHT22;4301;48.362;8.478;2023-06-04T15:26:59;23.90;1.00
8527;DHT22;4301;48.362;8.478;2023-06-04T15:29:26;23.80;1.00
8527;DHT22;4301;48.362;8.478;2023-06-04T15:31:54;23.70;1.00
8527;DHT22;4301;48.362;8.478;2023-06-04T15:34:21;23.70;1.00
8527;DHT22;4301;48.362;8.478;2023-06-04T15:36:48;23.70;1.00
8527;DHT22;4301;48.362;8.478;2023-06-04T15:39:15;23.60;1.00
8527;DHT22;4301;48.362;8.478;2023-06-04T15:41:42;23.50;1.00
8527;DHT22;4301;48.362;8.478;2023-06-04T15:44:09;23.50;1.00
8527;DHT22;4301;48.362;8.478;2023-06-04T15:46:36;23.40;1.00
8527;DHT22;4301;48.362;8.478;2023-06-04T15:49:05;23.40;1.00
8527;DHT22;4301;48.362;8.478;2023-06-04T15:51:34;23.30;1.00
8527;DHT22;4301;48.362;8.478;2023-06-04T15:54:01;23.30;1.00
8527;DHT22;4301;48.362;8.478;2023-06-04T15:56:28;23.40;1.00
8527;DHT22;4301;48.362;8.478;2023-06-04T15:58:55;23.50;1.00
8527;DHT22;4301;48.362;8.478;2023-06-04T16:01:23;23.40;1.00
8527;DHT22;4301;48.362;8.478;2023-06-04T16:03:50;23.50;1.00
8527;DHT22;4301;48.362;8.478;2023-06-04T16:06:20;23.70;1.00
8527;DHT22;4301;48.362;8.478;2023-06-04T16:08:47;23.70;1.00
8527;DHT22;4301;48.362;8.478;2023-06-04T16:11:14;23.70;1.00
8527;DHT22;4301;48.362;8.478;2023-06-04T16:13:41;23.60;1.00
8527;DHT22;4301;48.362;8.478;2023-06-04T16:16:08;23.60;1.00